Time;durP1;ratioP1;P1;durP2;ratioP2;P2;SDS_P1;SDS_P2;PMS_P1;PMS_P2;Temp;Humidity;BMP_temperature;BMP_pressure;BME280_temperature;BME280_humidity;BME280_pressure;Samples;Min_cycle;Max_cycle;Signal;HPM_P1;HPM_P2
2024/03/25 00:00:24;;;;;;;3.72;2.83;;;8.90;99.90;;;;;;5089867;28;20036;-69
2024/03/25 00:03:10;;;;;;;4.03;2.75;;;9.00;99.90;;;;;;5061324;28;20033;-69
2024/03/25 00:05:57;;;;;;;3.85;2.55;;;8.90;99.90;;;;;;5064690;28;20411;-70
2024/03/25 00:08:43;;;;;;;3.05;2.33;;;8.80;99.90;;;;;;5090754;28;20052;-69
2024/03/25 00:11:29;;;;;;;2.92;2.10;;;8.70;99.90;;;;;;5089338;28;20075;-69
2024/03/25 00:14:15;;;;;;;2.92;1.98;;;8.60;99.90;;;;;;5050609;28;20053;-69
2024/03/25 00:17:01;;;;;;;2.92;2.17;;;8.50;99.90;;;;;;5089323;28;20046;-68
2024/03/25 00:19:50;;;;;;;3.38;2.28;;;8.50;99.90;;;;;;5066520;28;20473;-69
2024/03/25 00:22:36;;;;;;;3.35;2.15;;;8.50;99.90;;;;;;5075671;28;20060;-69
2024/03/25 00:25:22;;;;;;;3.78;2.58;;;8.60;99.90;;;;;;5054206;28;20439;-67
2024/03/25 00:28:08;;;;;;;3.42;2.53;;;8.50;99.90;;;;;;5062941;28;20036;-66
2024/03/25 00:30:54;;;;;;;3.33;2.60;;;8.50;99.90;;;;;;5093687;28;20047;-67
2024/03/25 00:33:40;;;;;;;5.47;2.70;;;8.50;99.90;;;;;;5089675;28;20055;-66
2024/03/25 00:36:26;;;;;;;3.40;2.50;;;8.50;99.90;;;;;;5056316;28;20117;-67
2024/03/25 00:39:13;;;;;;;5.40;2.97;;;8.50;99.90;;;;;;4992497;28;20097;-68
2024/03/25 00:41:59;;;;;;;4.68;2.95;;;8.40;99.90;;;;;;5045107;28;20549;-69
2024/03/25 00:44:45;;;;;;;6.00;3.67;;;8.50;99.90;;;;;;4991357;28;20118;-68
2024/03/25 00:47:31;;;;;;;5.55;3.78;;;8.50;99.90;;;;;;4985206;28;20051;-69
2024/03/25 00:50:17;;;;;;;5.75;3.30;;;8.50;99.90;;;;;;5051404;28;20139;-68
2024/03/25 00:53:03;;;;;;;4.47;3.35;;;8.50;99.90;;;;;;4989933;28;20058;-68
2024/03/25 00:55:51;;;;;;;4.72;3.25;;;8.50;99.90;;;;;;4975651;28;20039;-68
2024/03/25 00:58:37;;;;;;;5.07;3.15;;;8.50;99.90;;;;;;4979598;28;20046;-69
2024/03/25 01:01:23;;;;;;;4.75;3.22;;;8.60;99.90;;;;;;4981228;28;20046;-68
2024/03/25 01:04:09;;;;;;;5.65;3.30;;;8.60;99.90;;;;;;4990380;28;20179;-69
2024/03/25 01:06:55;;;;;;;5.07;3.80;;;8.60;99.90;;;;;;5032647;28;20087;-69
2024/03/25 01:09:41;;;;;;;5.20;3.33;;;8.50;99.90;;;;;;4987598;28;20064;-69
2024/03/25 01:12:27;;;;;;;4.70;3.20;;;8.60;99.90;;;;;;4997843;28;20047;-70
2024/03/25 01:15:12;;;;;;;5.43;3.80;;;8.60;99.90;;;;;;4992193;28;20081;-71
2024/03/25 01:17:58;;;;;;;6.70;4.30;;;8.60;99.90;;;;;;4991728;28;20070;-66
2024/03/25 01:20:46;;;;;;;5.93;3.88;;;8.60;99.90;;;;;;4976807;28;20445;-67
2024/03/25 01:23:32;;;;;;;5.43;4.07;;;8.50;99.90;;;;;;4990118;28;20171;-67
2024/03/25 01:26:18;;;;;;;8.55;4.40;;;8.60;99.90;;;;;;4985402;28;20058;-67
2024/03/25 01:29:04;;;;;;;5.13;3.88;;;8.60;99.90;;;;;;4979424;28;20060;-68
2024/03/25 01:31:49;;;;;;;6.10;4.10;;;8.60;99.90;;;;;;4977082;28;20511;-66
2024/03/25 01:34:35;;;;;;;6.57;4.55;;;8.60;99.90;;;;;;4984703;28;20440;-66
2024/03/25 01:37:22;;;;;;;7.15;5.20;;;8.70;99.90;;;;;;4989523;28;20413;-67
2024/03/25 01:40:10;;;;;;;6.00;4.10;;;8.70;99.90;;;;;;4982465;28;20093;-67
2024/03/25 01:42:59;;;;;;;5.50;4.20;;;8.70;99.90;;;;;;4989324;28;20494;-66
2024/03/25 01:45:45;;;;;;;6.65;4.43;;;8.70;99.90;;;;;;4987839;28;20129;-67
2024/03/25 01:48:32;;;;;;;7.05;4.43;;;8.70;99.90;;;;;;4988260;28;20379;-66
2024/03/25 01:51:20;;;;;;;6.88;4.70;;;8.70;99.90;;;;;;4987340;28;20490;-67
2024/03/25 01:54:07;;;;;;;4.35;3.55;;;8.80;99.90;;;;;;4990988;28;20062;-67
2024/03/25 01:56:55;;;;;;;4.78;3.63;;;8.80;99.90;;;;;;4989967;28;20051;-67
2024/03/25 01:59:41;;;;;;;4.53;3.08;;;8.80;99.90;;;;;;4987041;28;20566;-67
2024/03/25 02:02:28;;;;;;;9.55;2.47;;;8.80;99.90;;;;;;4976098;28;20432;-67
2024/03/25 02:05:15;;;;;;;2.88;1.90;;;8.80;99.90;;;;;;4971254;28;20043;-67
2024/03/25 02:08:03;;;;;;;4.22;2.20;;;8.80;99.90;;;;;;5050636;28;20482;-68
2024/03/25 02:10:51;;;;;;;2.60;1.83;;;8.80;99.90;;;;;;4983406;28;20050;-68
2024/03/25 02:13:38;;;;;;;2.78;1.80;;;8.70;99.90;;;;;;4985509;28;20065;-67
2024/03/25 02:16:23;;;;;;;1.73;1.42;;;8.70;99.90;;;;;;4975625;28;20038;-68
2024/03/25 02:19:13;;;;;;;2.45;1.60;;;8.70;99.90;;;;;;4987840;28;20039;-68
2024/03/25 02:21:59;;;;;;;2.03;1.35;;;8.60;99.90;;;;;;4988390;28;20505;-68
2024/03/25 02:24:46;;;;;;;3.22;1.70;;;8.60;99.90;;;;;;4975566;28;20042;-68
2024/03/25 02:27:32;;;;;;;2.22;1.30;;;8.60;99.90;;;;;;4985506;28;20044;-68
2024/03/25 02:30:18;;;;;;;2.60;1.40;;;8.50;99.90;;;;;;4972990;28;20054;-69
2024/03/25 02:33:04;;;;;;;2.35;1.52;;;8.50;99.90;;;;;;4989342;28;20057;-68
2024/03/25 02:35:50;;;;;;;3.08;2.17;;;8.40;99.90;;;;;;4982880;28;20125;-67
2024/03/25 02:38:36;;;;;;;3.45;2.15;;;8.40;99.90;;;;;;5051122;28;20141;-67
2024/03/25 02:41:24;;;;;;;5.05;2.58;;;8.40;99.90;;;;;;5069405;28;20040;-67
2024/03/25 02:44:10;;;;;;;5.35;2.78;;;8.40;99.90;;;;;;5054203;28;20120;-67
2024/03/25 02:46:57;;;;;;;3.65;2.47;;;8.40;99.90;;;;;;5064099;28;20541;-67
2024/03/25 02:49:43;;;;;;;3.13;2.08;;;8.40;99.90;;;;;;5070856;28;20484;-67
2024/03/25 02:52:29;;;;;;;5.00;2.53;;;8.40;99.90;;;;;;5072974;28;20583;-67
2024/03/25 02:55:14;;;;;;;4.80;2.63;;;8.40;99.90;;;;;;5055567;28;20465;-68
2024/03/25 02:58:01;;;;;;;4.63;2.30;;;8.40;99.90;;;;;;5061706;28;20048;-67
2024/03/25 03:00:47;;;;;;;4.40;2.30;;;8.30;99.90;;;;;;5065581;28;20079;-67
2024/03/25 03:03:32;;;;;;;3.83;2.33;;;8.20;99.90;;;;;;5066162;28;20048;-67
2024/03/25 03:06:18;;;;;;;4.85;2.22;;;8.20;99.90;;;;;;5082113;28;20162;-66
2024/03/25 03:09:05;;;;;;;3.78;2.25;;;8.10;99.90;;;;;;5058517;28;20043;-66
2024/03/25 03:11:51;;;;;;;4.10;1.88;;;8.00;99.90;;;;;;5067828;28;20059;-66
2024/03/25 03:14:37;;;;;;;4.20;2.30;;;8.00;99.90;;;;;;5090738;28;20052;-66
2024/03/25 03:17:23;;;;;;;6.55;2.20;;;7.90;99.90;;;;;;5054103;28;20393;-67
2024/03/25 03:20:09;;;;;;;4.18;1.85;;;7.90;99.90;;;;;;5049281;28;20039;-67
2024/03/25 03:22:56;;;;;;;4.95;2.90;;;8.00;99.90;;;;;;5069183;28;20040;-67
2024/03/25 03:25:44;;;;;;;5.28;2.40;;;8.00;99.90;;;;;;5056214;28;20037;-67
2024/03/25 03:28:30;;;;;;;5.28;2.60;;;8.00;99.90;;;;;;5057463;28;20041;-67
2024/03/25 03:31:16;;;;;;;6.47;2.63;;;8.00;99.90;;;;;;5064675;28;20067;-67
2024/03/25 03:34:03;;;;;;;4.05;2.40;;;8.10;99.90;;;;;;5081255;28;20060;-67
2024/03/25 03:36:48;;;;;;;6.32;2.75;;;8.10;99.90;;;;;;5074452;28;20047;-67
2024/03/25 03:39:34;;;;;;;4.88;2.50;;;8.20;99.90;;;;;;5059756;28;20080;-68
2024/03/25 03:42:20;;;;;;;3.88;2.55;;;8.20;99.90;;;;;;5064706;28;20037;-67
2024/03/25 03:45:07;;;;;;;4.40;2.60;;;8.20;99.90;;;;;;5066194;28;20028;-67
2024/03/25 03:47:53;;;;;;;4.45;2.47;;;8.20;99.90;;;;;;5054965;28;20071;-67
2024/03/25 03:50:41;;;;;;;3.50;2.08;;;8.20;99.90;;;;;;5061073;28;20029;-67
2024/03/25 03:53:27;;;;;;;4.82;2.60;;;8.20;99.90;;;;;;5068709;28;20044;-67
2024/03/25 03:56:13;;;;;;;6.00;2.78;;;8.10;99.90;;;;;;5075240;28;20032;-67
2024/03/25 03:58:59;;;;;;;4.13;2.45;;;8.10;99.90;;;;;;5054848;28;20079;-67
2024/03/25 04:01:45;;;;;;;3.80;2.88;;;8.20;99.90;;;;;;5058040;28;20124;-68
2024/03/25 04:04:31;;;;;;;3.72;2.90;;;8.20;99.90;;;;;;5052500;28;20032;-68
2024/03/25 04:07:17;;;;;;;5.50;2.42;;;8.20;99.90;;;;;;5074183;28;20102;-68
2024/03/25 04:10:04;;;;;;;3.70;2.45;;;8.20;99.90;;;;;;5071434;28;20127;-69
2024/03/25 04:12:50;;;;;;;4.20;2.60;;;8.20;99.90;;;;;;5046368;28;20416;-69
2024/03/25 04:15:36;;;;;;;4.38;2.40;;;8.20;99.90;;;;;;5073530;28;20459;-69
2024/03/25 04:18:22;;;;;;;3.60;2.00;;;8.20;99.90;;;;;;5061561;28;20036;-69
2024/03/25 04:21:12;;;;;;;3.35;2.28;;;8.20;99.90;;;;;;5053168;28;20401;-69
2024/03/25 04:23:58;;;;;;;4.88;2.10;;;8.10;99.90;;;;;;5068852;28;20052;-69
2024/03/25 04:26:45;;;;;;;4.75;2.58;;;8.10;99.90;;;;;;5078013;28;20036;-69
2024/03/25 04:29:31;;;;;;;4.40;2.53;;;8.20;99.90;;;;;;5076903;28;20488;-66
2024/03/25 04:32:16;;;;;;;3.92;2.25;;;8.20;99.90;;;;;;5080979;28;20261;-75
2024/03/25 04:35:03;;;;;;;4.68;2.58;;;8.10;99.90;;;;;;5045484;28;20496;-67
2024/03/25 04:37:49;;;;;;;3.20;1.98;;;8.10;99.90;;;;;;5045430;28;20050;-69
2024/03/25 04:40:36;;;;;;;3.85;1.98;;;8.10;99.90;;;;;;4991510;28;20065;-64
2024/03/25 04:43:21;;;;;;;3.17;2.03;;;8.10;99.90;;;;;;4990017;28;20640;-64
2024/03/25 04:46:08;;;;;;;2.85;2.03;;;8.10;99.90;;;;;;4983872;28;20038;-64
2024/03/25 04:48:54;;;;;;;4.65;2.30;;;8.10;99.90;;;;;;4985502;28;20498;-65
2024/03/25 04:51:41;;;;;;;5.20;2.97;;;8.20;99.90;;;;;;4982869;28;20046;-64
2024/03/25 04:54:27;;;;;;;5.32;2.60;;;8.20;99.90;;;;;;4981590;28;20050;-65
2024/03/25 04:57:13;;;;;;;6.72;3.45;;;8.20;99.90;;;;;;5058154;28;20074;-64
2024/03/25 04:59:59;;;;;;;4.07;2.88;;;8.20;99.90;;;;;;4985546;28;20117;-65
2024/03/25 05:02:45;;;;;;;4.97;3.03;;;8.10;99.90;;;;;;4991067;28;20035;-64
2024/03/25 05:05:31;;;;;;;4.00;2.75;;;8.20;99.90;;;;;;4981708;28;20134;-64
2024/03/25 05:08:18;;;;;;;4.82;3.40;;;8.10;99.90;;;;;;4972325;28;20152;-64
2024/03/25 05:11:04;;;;;;;5.22;3.30;;;8.10;99.90;;;;;;4986733;28;20058;-64
2024/03/25 05:13:50;;;;;;;7.10;3.50;;;8.20;99.90;;;;;;4971620;28;20055;-64
2024/03/25 05:16:39;;;;;;;5.60;3.97;;;8.10;99.90;;;;;;4978447;28;20038;-64
2024/03/25 05:19:25;;;;;;;4.78;3.58;;;8.20;99.90;;;;;;4983409;28;20072;-64
2024/03/25 05:22:10;;;;;;;5.88;3.47;;;8.20;99.90;;;;;;4990024;28;20084;-64
2024/03/25 05:24:57;;;;;;;5.15;3.20;;;8.20;99.90;;;;;;4981760;28;20058;-63
2024/03/25 05:27:43;;;;;;;7.97;3.35;;;8.20;99.90;;;;;;4972245;28;20054;-64
2024/03/25 05:30:29;;;;;;;7.20;3.95;;;8.20;99.90;;;;;;4971629;28;20499;-63
2024/03/25 05:33:15;;;;;;;6.78;3.55;;;8.20;99.90;;;;;;4971538;28;20051;-63
2024/03/25 05:36:01;;;;;;;4.47;3.40;;;8.20;99.90;;;;;;4981602;28;20490;-64
2024/03/25 05:38:47;;;;;;;6.25;3.53;;;8.20;99.90;;;;;;4976232;28;20058;-62
2024/03/25 05:41:33;;;;;;;6.78;3.85;;;8.20;99.90;;;;;;4987468;28;20069;-64
2024/03/25 05:44:19;;;;;;;6.97;3.35;;;8.20;99.90;;;;;;4974435;28;20057;-65
2024/03/25 05:47:05;;;;;;;4.60;2.60;;;8.20;99.90;;;;;;4991605;28;20470;-65
2024/03/25 05:49:52;;;;;;;6.40;3.22;;;8.20;99.90;;;;;;5041014;28;20486;-65
2024/03/25 05:52:38;;;;;;;3.83;2.63;;;8.30;99.90;;;;;;4980302;28;20058;-64
2024/03/25 05:55:24;;;;;;;4.38;2.72;;;8.20;99.90;;;;;;4990638;28;20062;-65
2024/03/25 05:58:10;;;;;;;7.65;3.90;;;8.30;99.90;;;;;;4987791;28;20054;-65
2024/03/25 06:00:56;;;;;;;4.57;3.08;;;8.30;99.90;;;;;;4978136;28;20050;-65
2024/03/25 06:03:42;;;;;;;6.20;3.08;;;8.40;99.90;;;;;;5041653;28;20054;-65
2024/03/25 06:06:29;;;;;;;6.40;3.47;;;8.30;99.90;;;;;;4970733;28;20074;-64
2024/03/25 06:09:15;;;;;;;6.07;3.85;;;8.30;99.90;;;;;;4975462;28;20084;-64
2024/03/25 06:12:01;;;;;;;4.97;3.30;;;8.40;99.90;;;;;;5036591;28;20031;-65
2024/03/25 06:14:48;;;;;;;7.10;3.33;;;8.40;99.90;;;;;;5090448;28;20043;-64
2024/03/25 06:17:33;;;;;;;5.85;3.70;;;8.40;99.90;;;;;;5014604;28;20051;-64
2024/03/25 06:20:20;;;;;;;6.53;2.95;;;8.40;99.90;;;;;;4972731;28;20482;-64
2024/03/25 06:23:06;;;;;;;6.65;3.80;;;8.40;99.90;;;;;;4991311;28;20497;-65
2024/03/25 06:25:53;;;;;;;7.85;3.45;;;8.40;99.90;;;;;;4989320;28;20520;-65
2024/03/25 06:28:39;;;;;;;8.68;3.42;;;8.30;99.90;;;;;;5020894;28;20044;-64
2024/03/25 06:34:30;;;;;;;6.55;3.47;;;8.40;99.90;;;;;;4988576;28;20054;-67
2024/03/25 06:37:16;;;;;;;7.63;3.30;;;8.40;99.90;;;;;;4987045;28;20050;-66
2024/03/25 06:40:02;;;;;;;6.53;3.53;;;8.30;99.90;;;;;;4992179;28;20517;-66
2024/03/25 06:42:48;;;;;;;5.82;3.10;;;8.40;99.90;;;;;;4970608;28;20038;-66
2024/03/25 06:45:34;;;;;;;5.15;2.55;;;8.40;99.90;;;;;;5015031;28;20417;-66
2024/03/25 06:48:20;;;;;;;6.25;3.60;;;8.40;99.90;;;;;;4977361;28;20050;-66
2024/03/25 06:51:06;;;;;;;5.13;2.80;;;8.40;99.90;;;;;;4980274;28;20047;-64
2024/03/25 06:53:52;;;;;;;6.50;3.08;;;8.40;99.90;;;;;;4983989;28;20486;-68
2024/03/25 06:56:38;;;;;;;4.78;2.63;;;8.40;99.90;;;;;;4972866;28;20490;-64
2024/03/25 06:59:25;;;;;;;8.35;2.78;;;8.50;99.90;;;;;;4993673;28;20099;-67
2024/03/25 07:02:10;;;;;;;5.82;3.03;;;8.50;99.90;;;;;;4985988;28;20034;-66
2024/03/25 07:04:56;;;;;;;6.55;2.95;;;8.50;99.90;;;;;;4970856;28;20168;-65
2024/03/25 07:07:42;;;;;;;6.28;3.75;;;8.50;99.90;;;;;;4984947;28;20035;-66
2024/03/25 07:10:28;;;;;;;4.82;2.92;;;8.50;99.90;;;;;;4976885;28;20137;-67
2024/03/25 07:13:14;;;;;;;5.00;2.80;;;8.50;99.90;;;;;;4981309;28;20054;-66
2024/03/25 07:16:00;;;;;;;5.63;2.78;;;8.50;99.90;;;;;;4988473;28;20514;-67
2024/03/25 07:18:46;;;;;;;5.88;3.05;;;8.60;99.90;;;;;;4984493;28;20482;-67
2024/03/25 07:21:32;;;;;;;5.40;3.33;;;8.60;99.90;;;;;;4986086;28;20559;-62
2024/03/25 07:24:18;;;;;;;5.65;2.67;;;8.50;99.90;;;;;;4986078;28;20414;-65
2024/03/25 07:27:04;;;;;;;3.63;2.47;;;8.60;99.90;;;;;;4983778;28;20051;-63
2024/03/25 07:29:51;;;;;;;5.15;3.08;;;8.50;99.90;;;;;;4975547;28;20050;-65
2024/03/25 07:32:37;;;;;;;8.50;3.80;;;8.60;99.90;;;;;;4991733;28;20050;-65
2024/03/25 07:35:23;;;;;;;6.65;3.03;;;8.60;99.90;;;;;;5045748;28;20137;-65
2024/03/25 07:38:09;;;;;;;6.13;3.10;;;8.60;99.90;;;;;;4982366;28;20060;-64
2024/03/25 07:40:54;;;;;;;8.60;2.80;;;8.60;99.90;;;;;;4999756;28;20054;-65
2024/03/25 07:43:40;;;;;;;4.78;3.00;;;8.60;99.90;;;;;;5060943;28;20133;-64
2024/03/25 07:46:26;;;;;;;5.63;3.20;;;8.50;99.90;;;;;;4973286;28;20410;-65
2024/03/25 07:49:13;;;;;;;4.78;2.35;;;8.50;99.90;;;;;;4973097;28;20081;-64
2024/03/25 07:52:00;;;;;;;6.90;3.10;;;8.50;99.90;;;;;;4981265;28;20406;-65
2024/03/25 07:54:47;;;;;;;4.65;2.83;;;8.50;99.90;;;;;;5006369;28;20044;-66
2024/03/25 07:57:33;;;;;;;6.57;3.13;;;8.60;99.90;;;;;;5068672;28;20048;-66
2024/03/25 08:00:19;;;;;;;7.13;2.50;;;8.60;99.90;;;;;;4989331;28;20038;-66
2024/03/25 08:03:05;;;;;;;3.60;2.45;;;8.60;99.90;;;;;;4972902;28;20043;-67
2024/03/25 08:05:50;;;;;;;3.63;2.33;;;8.60;99.90;;;;;;5011442;28;20042;-66
2024/03/25 08:08:36;;;;;;;6.07;2.28;;;8.60;99.90;;;;;;5060156;28;20048;-67
2024/03/25 08:11:23;;;;;;;5.88;2.70;;;8.60;99.90;;;;;;5022594;28;20034;-65
2024/03/25 08:14:09;;;;;;;5.15;2.83;;;8.50;99.90;;;;;;5039490;28;20121;-67
2024/03/25 08:16:55;;;;;;;10.02;3.30;;;8.60;99.90;;;;;;5007575;28;20032;-66
2024/03/25 08:19:42;;;;;;;4.82;3.03;;;8.60;99.90;;;;;;5042784;28;20368;-66
2024/03/25 08:22:27;;;;;;;4.63;2.60;;;8.60;99.90;;;;;;5017228;28;20121;-65
2024/03/25 08:25:13;;;;;;;4.95;2.90;;;8.70;99.90;;;;;;4984784;28;20043;-66
2024/03/25 08:27:59;;;;;;;7.75;4.15;;;8.80;99.90;;;;;;4992100;28;20043;-65
2024/03/25 08:30:46;;;;;;;4.82;3.47;;;8.90;99.90;;;;;;4994059;28;20042;-65
2024/03/25 08:33:32;;;;;;;6.30;3.85;;;9.00;99.90;;;;;;4990159;28;20064;-66
2024/03/25 08:36:20;;;;;;;7.85;4.30;;;9.10;99.90;;;;;;4990699;28;20039;-66
2024/03/25 08:39:06;;;;;;;8.63;4.07;;;9.20;99.90;;;;;;5001002;28;20051;-66
2024/03/25 08:41:52;;;;;;;7.55;4.13;;;9.20;99.90;;;;;;4977279;28;20041;-66
2024/03/25 08:44:38;;;;;;;7.50;3.80;;;9.30;99.90;;;;;;5056676;28;20131;-66
2024/03/25 08:47:24;;;;;;;5.80;3.40;;;9.40;99.90;;;;;;4968907;28;20039;-67
2024/03/25 08:50:10;;;;;;;5.88;4.07;;;9.40;99.90;;;;;;4972998;28;20050;-66
2024/03/25 08:52:56;;;;;;;6.07;3.30;;;9.40;99.90;;;;;;5046541;28;20053;-66
2024/03/25 08:55:45;;;;;;;5.53;3.22;;;9.50;99.90;;;;;;4990515;28;20039;-66
2024/03/25 08:58:32;;;;;;;7.50;4.75;;;9.50;99.90;;;;;;5040315;28;20043;-66
2024/03/25 09:01:18;;;;;;;8.48;3.83;;;9.50;99.90;;;;;;4987805;28;20099;-66
2024/03/25 09:04:03;;;;;;;6.47;3.58;;;9.50;99.90;;;;;;4982134;28;20072;-67
2024/03/25 09:06:49;;;;;;;7.25;3.80;;;9.40;99.90;;;;;;4973029;28;20039;-66
2024/03/25 09:12:40;;;;;;;7.25;3.17;;;9.40;99.90;;;;;;5032612;28;20032;-66
2024/03/25 09:15:26;;;;;;;5.53;3.20;;;9.50;99.90;;;;;;4969932;28;20166;-67
2024/03/25 09:18:12;;;;;;;5.35;2.80;;;9.50;99.90;;;;;;4970860;28;20486;-67
2024/03/25 09:20:58;;;;;;;4.95;3.35;;;9.50;99.90;;;;;;4980816;28;20129;-66
2024/03/25 09:23:44;;;;;;;6.43;3.58;;;9.50;99.90;;;;;;4976279;28;20038;-65
2024/03/25 09:26:30;;;;;;;7.32;3.72;;;9.50;99.90;;;;;;5002480;28;20054;-66
2024/03/25 09:29:16;;;;;;;5.47;3.35;;;9.50;99.90;;;;;;5026641;28;20117;-65
2024/03/25 09:32:03;;;;;;;6.55;3.50;;;9.50;99.90;;;;;;4985162;28;20096;-66
2024/03/25 09:34:50;;;;;;;5.18;3.17;;;9.50;99.90;;;;;;4970522;28;20095;-66
2024/03/25 09:37:37;;;;;;;6.20;3.38;;;9.60;99.90;;;;;;4976939;28;20789;-67
2024/03/25 09:40:23;;;;;;;5.85;2.97;;;9.50;99.90;;;;;;4987928;28;20109;-66
2024/03/25 09:43:37;;;;;;;5.88;3.20;;;9.60;99.90;;;;;;4969995;28;20051;-66
2024/03/25 09:46:25;;;;;;;5.13;2.90;;;9.60;99.90;;;;;;4977297;28;20410;-66
2024/03/25 09:49:11;;;;;;;5.05;3.42;;;9.60;99.90;;;;;;4983357;28;20043;-66
2024/03/25 09:51:57;;;;;;;4.88;3.35;;;9.60;99.90;;;;;;4975020;28;20050;-66
2024/03/25 09:54:43;;;;;;;11.15;4.05;;;9.70;99.90;;;;;;4987075;28;20043;-65
2024/03/25 09:57:29;;;;;;;5.35;3.33;;;9.70;99.90;;;;;;4970428;28;20490;-65
2024/03/25 10:00:15;;;;;;;6.47;3.30;;;9.80;99.90;;;;;;4972195;28;20053;-67
2024/03/25 10:03:01;;;;;;;6.32;3.42;;;9.90;99.90;;;;;;4973743;28;20050;-66
2024/03/25 10:05:47;;;;;;;5.05;2.97;;;9.90;99.90;;;;;;4989559;28;20061;-67
2024/03/25 10:08:33;;;;;;;5.05;3.03;;;10.10;99.90;;;;;;4978913;28;20065;-67
2024/03/25 10:11:19;;;;;;;5.63;2.92;;;10.20;99.90;;;;;;4979771;28;20486;-66
2024/03/25 10:14:06;;;;;;;4.03;2.85;;;10.30;99.90;;;;;;4977403;28;20056;-67
2024/03/25 10:16:52;;;;;;;4.80;2.95;;;10.30;99.90;;;;;;5051300;28;20038;-67
2024/03/25 10:19:38;;;;;;;4.88;2.95;;;10.40;99.90;;;;;;4989591;28;20046;-67
2024/03/25 10:22:24;;;;;;;14.25;3.40;;;10.50;99.90;;;;;;4983232;28;20074;-67
2024/03/25 10:25:25;;;;;;;5.60;3.00;;;10.60;99.90;;;;;;4989487;28;20332;-66
2024/03/25 10:28:11;;;;;;;4.32;2.53;;;10.70;99.90;;;;;;4989129;28;20046;-66
2024/03/25 10:31:04;;;;;;;5.00;2.80;;;10.80;99.90;;;;;;4988502;28;20428;-66
2024/03/25 10:33:50;;;;;;;3.90;2.20;;;10.80;99.90;;;;;;4987936;28;20054;-66
2024/03/25 10:36:36;;;;;;;6.38;2.95;;;10.80;99.90;;;;;;4988761;28;20110;-70
2024/03/25 10:39:26;;;;;;;4.43;2.42;;;10.80;99.90;;;;;;4973450;28;20455;-68
2024/03/25 10:42:14;;;;;;;4.13;1.95;;;10.80;99.90;;;;;;4983927;28;20115;-69
2024/03/25 10:45:00;;;;;;;4.60;2.05;;;10.80;99.60;;;;;;4995732;28;20055;-71
2024/03/25 10:47:47;;;;;;;3.53;2.05;;;10.80;99.30;;;;;;4973341;28;20121;-63
2024/03/25 10:50:35;;;;;;;4.45;2.22;;;10.80;98.70;;;;;;4969311;28;20054;-64
2024/03/25 10:53:23;;;;;;;3.10;1.60;;;10.80;98.80;;;;;;4973660;28;20100;-63
2024/03/25 10:56:12;;;;;;;4.63;1.80;;;10.80;98.30;;;;;;4983030;28;20061;-64
2024/03/25 10:58:59;;;;;;;4.63;1.77;;;10.80;98.20;;;;;;4981603;28;20038;-64
2024/03/25 11:01:46;;;;;;;5.05;2.22;;;10.80;98.30;;;;;;4991433;28;20078;-63
2024/03/25 11:04:32;;;;;;;3.28;2.00;;;11.00;98.30;;;;;;4968795;28;20039;-64
2024/03/25 11:07:27;;;;;;;4.38;2.00;;;11.00;98.10;;;;;;4976820;28;20515;-63
2024/03/25 11:10:13;;;;;;;5.75;2.10;;;11.10;97.90;;;;;;4970258;28;20042;-63
2024/03/25 11:13:00;;;;;;;3.75;2.17;;;11.10;97.50;;;;;;5058270;28;20184;-66
2024/03/25 11:15:49;;;;;;;2.83;2.03;;;11.00;97.70;;;;;;4987907;28;20043;-66
2024/03/25 11:18:34;;;;;;;3.15;2.00;;;11.10;97.60;;;;;;4974797;28;20078;-67
2024/03/25 11:21:26;;;;;;;3.42;2.08;;;11.20;97.30;;;;;;4983949;28;20129;-66
2024/03/25 11:24:12;;;;;;;3.78;1.70;;;11.20;97.10;;;;;;4973664;28;20042;-65
2024/03/25 11:27:02;;;;;;;4.38;2.03;;;11.30;96.90;;;;;;4987866;28;20501;-66
2024/03/25 11:29:49;;;;;;;5.47;3.10;;;11.40;96.40;;;;;;4981251;28;20440;-66
2024/03/25 11:32:45;;;;;;;3.65;2.15;;;11.40;96.50;;;;;;4988795;28;20047;-66
2024/03/25 11:35:38;;;;;;;4.63;2.40;;;11.60;96.50;;;;;;4987840;28;20050;-66
2024/03/25 11:38:26;;;;;;;3.65;2.08;;;11.60;96.60;;;;;;4984825;28;20445;-65
2024/03/25 11:41:12;;;;;;;2.33;1.92;;;11.70;96.50;;;;;;4982321;28;20065;-68
2024/03/25 11:43:58;;;;;;;4.90;2.13;;;11.90;96.50;;;;;;4983187;28;20074;-65
2024/03/25 11:46:45;;;;;;;3.20;1.63;;;12.00;96.30;;;;;;4992462;28;20045;-66
2024/03/25 11:49:31;;;;;;;4.00;1.70;;;12.10;96.00;;;;;;4988132;28;20042;-66
2024/03/25 11:52:17;;;;;;;4.40;2.75;;;12.20;95.90;;;;;;4987806;28;20039;-66
2024/03/25 11:55:04;;;;;;;4.65;2.50;;;12.20;95.70;;;;;;4983582;28;20053;-66
2024/03/25 11:57:56;;;;;;;3.88;2.17;;;12.30;95.70;;;;;;4975763;28;20125;-66
2024/03/25 12:00:46;;;;;;;2.90;1.55;;;12.40;95.40;;;;;;5016127;28;20143;-65
2024/03/25 12:03:33;;;;;;;4.10;1.50;;;12.40;95.00;;;;;;5089839;28;20043;-66
2024/03/25 12:06:19;;;;;;;2.45;1.50;;;12.40;94.60;;;;;;5030458;28;20133;-66
2024/03/25 12:12:10;;;;;;;3.83;1.48;;;12.40;94.10;;;;;;4978506;28;20121;-67
2024/03/25 12:14:57;;;;;;;2.15;1.52;;;12.40;93.90;;;;;;5020126;28;20048;-62
2024/03/25 12:17:43;;;;;;;3.08;1.42;;;12.50;93.90;;;;;;5080734;28;20071;-63
2024/03/25 12:20:30;;;;;;;2.42;1.27;;;12.50;93.40;;;;;;4986987;28;20050;-65
2024/03/25 12:23:16;;;;;;;3.00;1.65;;;12.50;93.40;;;;;;4989603;28;20035;-66
2024/03/25 12:26:04;;;;;;;3.25;1.70;;;12.50;93.50;;;;;;4989322;28;20049;-66
2024/03/25 12:28:50;;;;;;;2.88;1.40;;;12.50;93.40;;;;;;4987603;28;20460;-63
2024/03/25 12:31:36;;;;;;;2.90;1.63;;;12.60;93.40;;;;;;4990087;28;20051;-66
2024/03/25 12:34:22;;;;;;;2.50;1.35;;;12.60;93.40;;;;;;4986579;28;20073;-66
2024/03/25 12:37:08;;;;;;;3.25;1.40;;;12.70;93.10;;;;;;4983682;28;20050;-68
2024/03/25 12:39:58;;;;;;;3.65;1.70;;;12.60;93.10;;;;;;4987907;28;20772;-67
2024/03/25 12:42:44;;;;;;;2.33;1.40;;;12.60;92.80;;;;;;4984768;28;20046;-66
2024/03/25 12:45:29;;;;;;;2.50;1.48;;;12.60;93.10;;;;;;4983733;28;20042;-65
2024/03/25 12:48:15;;;;;;;3.42;1.70;;;12.60;93.00;;;;;;4971422;28;20058;-66
2024/03/25 12:51:02;;;;;;;3.35;1.73;;;12.60;93.10;;;;;;4971999;28;20402;-66
2024/03/25 12:53:48;;;;;;;3.17;1.60;;;12.50;92.90;;;;;;5008918;28;20092;-63
2024/03/25 12:56:37;;;;;;;3.08;1.45;;;12.40;92.60;;;;;;4979812;28;20054;-66
2024/03/25 12:59:23;;;;;;;3.45;1.65;;;12.40;92.60;;;;;;4987709;28;20057;-62
2024/03/25 13:02:11;;;;;;;1.67;1.35;;;12.40;92.50;;;;;;4990157;28;20565;-62
2024/03/25 13:04:57;;;;;;;2.42;1.30;;;12.30;92.10;;;;;;4970888;28;20062;-63
2024/03/25 13:07:45;;;;;;;2.92;1.30;;;12.30;92.00;;;;;;4970025;28;20035;-63
2024/03/25 13:10:31;;;;;;;4.30;1.50;;;12.30;91.30;;;;;;4982261;28;20085;-62
2024/03/25 13:13:18;;;;;;;2.50;1.40;;;12.20;91.40;;;;;;4990146;28;20103;-63
2024/03/25 13:16:04;;;;;;;2.30;1.20;;;12.20;91.30;;;;;;4977025;28;20401;-64
2024/03/25 13:18:50;;;;;;;3.10;1.58;;;12.20;91.40;;;;;;4990564;28;20404;-63
2024/03/25 13:21:36;;;;;;;5.57;2.00;;;12.30;91.60;;;;;;4989303;28;20053;-63
2024/03/25 13:24:22;;;;;;;1.98;1.30;;;12.30;91.50;;;;;;5056758;28;20050;-64
2024/03/25 13:27:08;;;;;;;3.13;1.73;;;12.30;91.50;;;;;;4992588;28;20110;-63
2024/03/25 13:29:54;;;;;;;3.60;2.00;;;12.40;91.40;;;;;;4975955;28;20054;-65
2024/03/25 13:32:40;;;;;;;4.00;1.77;;;12.40;91.40;;;;;;4975609;28;20125;-64
2024/03/25 13:35:27;;;;;;;5.75;2.25;;;12.50;91.40;;;;;;4990434;28;20054;-63
2024/03/25 13:38:12;;;;;;;3.95;1.80;;;12.50;91.20;;;;;;4989157;28;20132;-65
2024/03/25 13:41:02;;;;;;;3.78;1.85;;;12.50;91.10;;;;;;4983531;28;20074;-64
2024/03/25 13:43:48;;;;;;;4.15;1.80;;;12.50;90.30;;;;;;5044386;28;20078;-65
2024/03/25 13:46:34;;;;;;;2.05;1.38;;;12.60;90.90;;;;;;5059233;28;20042;-65
2024/03/25 13:49:22;;;;;;;3.28;1.33;;;12.60;90.90;;;;;;4988376;28;20034;-64
2024/03/25 13:52:08;;;;;;;3.25;1.67;;;12.70;90.90;;;;;;4978939;28;20089;-64
2024/03/25 13:54:54;;;;;;;4.25;2.63;;;12.80;90.90;;;;;;4989414;28;20046;-64
2024/03/25 13:57:40;;;;;;;2.45;1.45;;;12.90;90.80;;;;;;4979308;28;20081;-64
2024/03/25 14:00:28;;;;;;;4.45;1.60;;;12.90;90.60;;;;;;4983483;28;20486;-65
2024/03/25 14:03:15;;;;;;;2.78;1.42;;;12.90;89.70;;;;;;4986816;28;20040;-65
2024/03/25 14:06:01;;;;;;;1.77;1.40;;;12.90;89.30;;;;;;5010033;28;20026;-64
2024/03/25 14:08:47;;;;;;;1.92;1.33;;;12.80;88.70;;;;;;5006024;28;20525;-64
2024/03/25 14:11:33;;;;;;;2.53;1.33;;;12.80;88.50;;;;;;4989072;28;20038;-65
2024/03/25 14:14:19;;;;;;;3.00;1.63;;;12.70;88.50;;;;;;4980133;28;20046;-65
2024/03/25 14:17:05;;;;;;;1.73;1.42;;;12.70;88.40;;;;;;4981945;28;20509;-65
2024/03/25 14:19:56;;;;;;;2.38;1.38;;;12.80;88.70;;;;;;5006870;28;20541;-65
2024/03/25 14:22:42;;;;;;;3.88;1.50;;;12.90;89.00;;;;;;5003931;28;20038;-65
2024/03/25 14:25:28;;;;;;;2.97;1.38;;;12.90;88.80;;;;;;5044729;28;20041;-64
2024/03/25 14:28:14;;;;;;;2.28;1.10;;;13.00;88.60;;;;;;4969723;28;20177;-66
2024/03/25 14:30:59;;;;;;;1.73;1.40;;;13.00;88.20;;;;;;4970155;28;20050;-65
2024/03/25 14:33:45;;;;;;;1.58;1.25;;;13.00;88.00;;;;;;5014422;28;20066;-65
2024/03/25 14:36:32;;;;;;;2.50;1.50;;;12.90;87.80;;;;;;5010670;28;20539;-65
2024/03/25 14:39:18;;;;;;;2.92;1.73;;;12.90;88.00;;;;;;4979092;28;20062;-65
2024/03/25 14:42:04;;;;;;;2.22;1.30;;;12.80;88.00;;;;;;4969017;28;20046;-65